sensor_id;sensor_type;location;lat;lon;timestamp;temperature;humidity
9987;DHT22;5033;46.310;11.214;2023-02-21T00:01:27;7.30;99.90
9987;DHT22;5033;46.310;11.214;2023-02-21T00:04:12;7.30;99.90
9987;DHT22;5033;46.310;11.214;2023-02-21T00:06:58;7.20;99.90
9987;DHT22;5033;46.310;11.214;2023-02-21T00:09:42;7.20;99.90
9987;DHT22;5033;46.310;11.214;2023-02-21T00:12:28;7.20;99.90
9987;DHT22;5033;46.310;11.214;2023-02-21T00:15:12;7.20;99.90
9987;DHT22;5033;46.310;11.214;2023-02-21T00:17:57;7.20;99.90
9987;DHT22;5033;46.310;11.214;2023-02-21T00:20:41;7.20;99.90
9987;DHT22;5033;46.310;11.214;2023-02-21T00:23:25;7.20;99.90
9987;DHT22;5033;46.310;11.214;2023-02-21T00:26:10;7.20;99.90
9987;DHT22;5033;46.310;11.214;2023-02-21T00:28:55;7.20;99.90
9987;DHT22;5033;46.310;11.214;2023-02-21T00:31:40;7.10;99.90
9987;DHT22;5033;46.310;11.214;2023-02-21T00:34:24;7.10;99.90
9987;DHT22;5033;46.310;11.214;2023-02-21T00:37:08;7.00;99.90
9987;DHT22;5033;46.310;11.214;2023-02-21T00:39:52;7.00;99.90
9987;DHT22;5033;46.310;11.214;2023-02-21T00:42:37;7.00;99.90
9987;DHT22;5033;46.310;11.214;2023-02-21T00:45:23;6.90;99.90
9987;DHT22;5033;46.310;11.214;2023-02-21T00:48:08;6.90;99.90
9987;DHT22;5033;46.310;11.214;2023-02-21T00:50:52;6.80;99.90
9987;DHT22;5033;46.310;11.214;2023-02-21T00:53:36;6.90;99.90
9987;DHT22;5033;46.310;11.214;2023-02-21T00:56:21;6.80;99.90
9987;DHT22;5033;46.310;11.214;2023-02-21T00:59:05;6.90;99.90
9987;DHT22;5033;46.310;11.214;2023-02-21T01:01:51;6.90;99.90
9987;DHT22;5033;46.310;11.214;2023-02-21T01:04:35;6.90;99.90
9987;DHT22;5033;46.310;11.214;2023-02-21T01:07:20;7.00;99.90
9987;DHT22;5033;46.310;11.214;2023-02-21T01:10:04;7.00;99.90
9987;DHT22;5033;46.310;11.214;2023-02-21T01:12:49;7.00;99.90
9987;DHT22;5033;46.310;11.214;2023-02-21T01:15:33;6.90;99.90
9987;DHT22;5033;46.310;11.214;2023-02-21T01:18:19;6.90;99.90
9987;DHT22;5033;46.310;11.214;2023-02-21T01:21:04;6.80;99.90
9987;DHT22;5033;46.310;11.214;2023-02-21T01:23:48;6.80;99.90
9987;DHT22;5033;46.310;11.214;2023-02-21T01:26:33;6.80;99.90
9987;DHT22;5033;46.310;11.214;2023-02-21T01:29:17;6.70;99.90
9987;DHT22;5033;46.310;11.214;2023-02-21T01:32:02;6.70;99.90
9987;DHT22;5033;46.310;11.214;2023-02-21T01:34:48;6.70;99.90
9987;DHT22;5033;46.310;11.214;2023-02-21T01:37:33;6.60;99.90
9987;DHT22;5033;46.310;11.214;2023-02-21T01:40:17;6.60;99.90
9987;DHT22;5033;46.310;11.214;2023-02-21T01:43:04;6.50;99.90
9987;DHT22;5033;46.310;11.214;2023-02-21T01:45:52;6.50;99.90
9987;DHT22;5033;46.310;11.214;2023-02-21T01:48:38;6.50;99.90
9987;DHT22;5033;46.310;11.214;2023-02-21T01:51:27;6.50;99.90
9987;DHT22;5033;46.310;11.214;2023-02-21T01:54:13;6.50;99.90
9987;DHT22;5033;46.310;11.214;2023-02-21T01:56:59;6.50;99.90
9987;DHT22;5033;46.310;11.214;2023-02-21T01:59:46;6.50;99.90
9987;DHT22;5033;46.310;11.214;2023-02-21T02:02:36;6.50;99.90
9987;DHT22;5033;46.310;11.214;2023-02-21T02:05:20;6.50;99.90
9987;DHT22;5033;46.310;11.214;2023-02-21T02:08:07;6.50;99.90
9987;DHT22;5033;46.310;11.214;2023-02-21T02:10:59;6.50;99.90
9987;DHT22;5033;46.310;11.214;2023-02-21T02:14:03;6.50;99.90
9987;DHT22;5033;46.310;11.214;2023-02-21T02:16:39;6.40;99.90
9987;DHT22;5033;46.310;11.214;2023-02-21T02:25:26;6.30;99.90
9987;DHT22;5033;46.310;11.214;2023-02-21T02:28:12;6.30;99.90
9987;DHT22;5033;46.310;11.214;2023-02-21T02:37:08;6.20;99.90
9987;DHT22;5033;46.310;11.214;2023-02-21T02:39:41;6.20;99.90
9987;DHT22;5033;46.310;11.214;2023-02-21T02:42:18;6.20;99.90
9987;DHT22;5033;46.310;11.214;2023-02-21T02:44:52;6.10;99.90
9987;DHT22;5033;46.310;11.214;2023-02-21T02:47:23;6.20;99.90
9987;DHT22;5033;46.310;11.214;2023-02-21T02:49:54;6.20;99.90
9987;DHT22;5033;46.310;11.214;2023-02-21T02:52:22;6.20;99.90
9987;DHT22;5033;46.310;11.214;2023-02-21T02:54:57;6.30;99.90
9987;DHT22;5033;46.310;11.214;2023-02-21T02:57:25;6.30;99.90
9987;DHT22;5033;46.310;11.214;2023-02-21T02:59:53;6.20;99.90
9987;DHT22;5033;46.310;11.214;2023-02-21T03:02:38;6.10;99.90
9987;DHT22;5033;46.310;11.214;2023-02-21T03:05:18;6.00;99.90
9987;DHT22;5033;46.310;11.214;2023-02-21T03:07:57;6.00;99.90
9987;DHT22;5033;46.310;11.214;2023-02-21T03:10:36;6.00;99.90
9987;DHT22;5033;46.310;11.214;2023-02-21T03:13:06;5.90;99.90
9987;DHT22;5033;46.310;11.214;2023-02-21T03:15:43;5.90;99.90
9987;DHT22;5033;46.310;11.214;2023-02-21T03:18:16;5.90;99.90
9987;DHT22;5033;46.310;11.214;2023-02-21T03:20:46;5.80;99.90
9987;DHT22;5033;46.310;11.214;2023-02-21T03:23:18;5.80;99.90
9987;DHT22;5033;46.310;11.214;2023-02-21T03:25:47;5.80;99.90
9987;DHT22;5033;46.310;11.214;2023-02-21T03:28:16;5.80;99.90
9987;DHT22;5033;46.310;11.214;2023-02-21T03:30:45;5.80;99.90
9987;DHT22;5033;46.310;11.214;2023-02-21T03:33:15;5.70;99.90
9987;DHT22;5033;46.310;11.214;2023-02-21T03:35:43;5.70;99.90
9987;DHT22;5033;46.310;11.214;2023-02-21T03:38:10;5.70;99.90
9987;DHT22;5033;46.310;11.214;2023-02-21T03:40:38;5.70;99.90
9987;DHT22;5033;46.310;11.214;2023-02-21T03:43:05;5.70;99.90
9987;DHT22;5033;46.310;11.214;2023-02-21T03:45:33;5.70;99.90
9987;DHT22;5033;46.310;11.214;2023-02-21T03:48:00;5.70;99.90
9987;DHT22;5033;46.310;11.214;2023-02-21T03:50:27;5.70;99.90
9987;DHT22;5033;46.310;11.214;2023-02-21T03:52:54;5.60;99.90
9987;DHT22;5033;46.310;11.214;2023-02-21T03:55:21;5.60;99.90
9987;DHT22;5033;46.310;11.214;2023-02-21T03:57:49;5.60;99.90
9987;DHT22;5033;46.310;11.214;2023-02-21T04:00:17;5.60;99.90
9987;DHT22;5033;46.310;11.214;2023-02-21T04:02:44;5.70;99.90
9987;DHT22;5033;46.310;11.214;2023-02-21T04:05:11;5.70;99.90
9987;DHT22;5033;46.310;11.214;2023-02-21T04:07:40;5.70;99.90
9987;DHT22;5033;46.310;11.214;2023-02-21T04:10:07;5.60;99.90
9987;DHT22;5033;46.310;11.214;2023-02-21T04:12:34;5.60;99.90
9987;DHT22;5033;46.310;11.214;2023-02-21T04:15:03;5.60;99.90
9987;DHT22;5033;46.310;11.214;2023-02-21T04:17:30;5.50;99.90
9987;DHT22;5033;46.310;11.214;2023-02-21T04:19:57;5.60;99.90
9987;DHT22;5033;46.310;11.214;2023-02-21T04:22:26;5.50;99.90
9987;DHT22;5033;46.310;11.214;2023-02-21T04:24:53;5.50;99.90
9987;DHT22;5033;46.310;11.214;2023-02-21T04:27:20;5.50;99.90
9987;DHT22;5033;46.310;11.214;2023-02-21T04:29:47;5.50;99.90
9987;DHT22;5033;46.310;11.214;2023-02-21T04:32:15;5.40;99.90
9987;DHT22;5033;46.310;11.214;2023-02-21T04:34:44;5.40;99.90
9987;DHT22;5033;46.310;11.214;2023-02-21T04:37:12;5.30;99.90
9987;DHT22;5033;46.310;11.214;2023-02-21T04:39:40;5.20;99.90
9987;DHT22;5033;46.310;11.214;2023-02-21T04:42:07;5.10;99.90
9987;DHT22;5033;46.310;11.214;2023-02-21T04:44:35;5.10;99.90
9987;DHT22;5033;46.310;11.214;2023-02-21T04:47:04;5.10;99.90
9987;DHT22;5033;46.310;11.214;2023-02-21T04:49:32;5.10;99.90
9987;DHT22;5033;46.310;11.214;2023-02-21T04:51:59;5.10;99.90
9987;DHT22;5033;46.310;11.214;2023-02-21T04:54:26;5.00;99.90
9987;DHT22;5033;46.310;11.214;2023-02-21T04:56:53;5.10;99.90
9987;DHT22;5033;46.310;11.214;2023-02-21T04:59:20;5.10;99.90
9987;DHT22;5033;46.310;11.214;2023-02-21T05:01:47;5.10;99.90
9987;DHT22;5033;46.310;11.214;2023-02-21T05:04:14;5.10;99.90
9987;DHT22;5033;46.310;11.214;2023-02-21T05:06:43;5.10;99.90
9987;DHT22;5033;46.310;11.214;2023-02-21T05:09:10;5.10;99.90
9987;DHT22;5033;46.310;11.214;2023-02-21T05:11:37;5.10;99.90
9987;DHT22;5033;46.310;11.214;2023-02-21T05:14:04;5.10;99.90
9987;DHT22;5033;46.310;11.214;2023-02-21T05:16:31;5.00;99.90
9987;DHT22;5033;46.310;11.214;2023-02-21T05:18:58;5.00;99.90
9987;DHT22;5033;46.310;11.214;2023-02-21T05:21:27;5.00;99.90
9987;DHT22;5033;46.310;11.214;2023-02-21T05:23:55;5.00;99.90
9987;DHT22;5033;46.310;11.214;2023-02-21T05:26:24;5.00;99.90
9987;DHT22;5033;46.310;11.214;2023-02-21T05:28:52;4.90;99.90
9987;DHT22;5033;46.310;11.214;2023-02-21T05:31:19;4.90;99.90
9987;DHT22;5033;46.310;11.214;2023-02-21T05:33:46;4.90;99.90
9987;DHT22;5033;46.310;11.214;2023-02-21T05:36:13;4.90;99.90
9987;DHT22;5033;46.310;11.214;2023-02-21T05:38:46;4.90;99.90
9987;DHT22;5033;46.310;11.214;2023-02-21T05:41:16;4.90;99.90
9987;DHT22;5033;46.310;11.214;2023-02-21T05:43:43;4.90;99.90
9987;DHT22;5033;46.310;11.214;2023-02-21T05:46:18;4.90;99.90
9987;DHT22;5033;46.310;11.214;2023-02-21T05:48:46;4.90;99.90
9987;DHT22;5033;46.310;11.214;2023-02-21T05:51:13;4.90;99.90
9987;DHT22;5033;46.310;11.214;2023-02-21T05:53:40;4.90;99.90
9987;DHT22;5033;46.310;11.214;2023-02-21T05:56:08;4.80;99.90
9987;DHT22;5033;46.310;11.214;2023-02-21T05:58:36;4.80;99.90
9987;DHT22;5033;46.310;11.214;2023-02-21T06:01:04;4.70;99.90
9987;DHT22;5033;46.310;11.214;2023-02-21T06:03:31;4.70;99.90
9987;DHT22;5033;46.310;11.214;2023-02-21T06:05:59;4.70;99.90
9987;DHT22;5033;46.310;11.214;2023-02-21T06:08:26;4.60;99.90
9987;DHT22;5033;46.310;11.214;2023-02-21T06:10:53;4.70;99.90
9987;DHT22;5033;46.310;11.214;2023-02-21T06:13:20;4.60;99.90
9987;DHT22;5033;46.310;11.214;2023-02-21T06:15:49;4.60;99.90
9987;DHT22;5033;46.310;11.214;2023-02-21T06:18:16;4.60;99.90
9987;DHT22;5033;46.310;11.214;2023-02-21T06:20:43;4.60;99.90
9987;DHT22;5033;46.310;11.214;2023-02-21T06:23:11;4.60;99.90
9987;DHT22;5033;46.310;11.214;2023-02-21T06:25:38;4.60;99.90
9987;DHT22;5033;46.310;11.214;2023-02-21T06:28:04;4.50;99.90
9987;DHT22;5033;46.310;11.214;2023-02-21T06:30:32;4.50;99.90
9987;DHT22;5033;46.310;11.214;2023-02-21T06:33:01;4.50;99.90
9987;DHT22;5033;46.310;11.214;2023-02-21T06:35:28;4.60;99.90
9987;DHT22;5033;46.310;11.214;2023-02-21T06:37:55;4.60;99.90
9987;DHT22;5033;46.310;11.214;2023-02-21T06:40:22;4.60;99.90
9987;DHT22;5033;46.310;11.214;2023-02-21T06:42:49;4.70;99.90
9987;DHT22;5033;46.310;11.214;2023-02-21T06:45:16;4.70;99.90
9987;DHT22;5033;46.310;11.214;2023-02-21T06:47:43;4.70;99.90
9987;DHT22;5033;46.310;11.214;2023-02-21T06:50:12;4.70;99.90
9987;DHT22;5033;46.310;11.214;2023-02-21T06:52:39;4.60;99.90
9987;DHT22;5033;46.310;11.214;2023-02-21T06:55:06;4.60;99.90
9987;DHT22;5033;46.310;11.214;2023-02-21T06:57:34;4.70;99.90
9987;DHT22;5033;46.310;11.214;2023-02-21T07:00:01;4.70;99.90
9987;DHT22;5033;46.310;11.214;2023-02-21T07:02:28;4.70;99.90
9987;DHT22;5033;46.310;11.214;2023-02-21T07:04:55;4.80;99.90
9987;DHT22;5033;46.310;11.214;2023-02-21T07:07:23;4.80;99.90
9987;DHT22;5033;46.310;11.214;2023-02-21T07:09:50;4.80;99.90
9987;DHT22;5033;46.310;11.214;2023-02-21T07:12:19;4.80;99.90
9987;DHT22;5033;46.310;11.214;2023-02-21T07:14:45;4.80;99.90
9987;DHT22;5033;46.310;11.214;2023-02-21T07:17:12;4.80;99.90
9987;DHT22;5033;46.310;11.214;2023-02-21T07:19:40;4.80;99.90
9987;DHT22;5033;46.310;11.214;2023-02-21T07:22:08;4.80;99.90
9987;DHT22;5033;46.310;11.214;2023-02-21T07:24:36;4.90;99.90
9987;DHT22;5033;46.310;11.214;2023-02-21T07:27:03;5.10;99.90
9987;DHT22;5033;46.310;11.214;2023-02-21T07:29:30;5.90;99.90
9987;DHT22;5033;46.310;11.214;2023-02-21T07:31:57;6.80;99.90
9987;DHT22;5033;46.310;11.214;2023-02-21T07:34:24;7.80;99.90
9987;DHT22;5033;46.310;11.214;2023-02-21T07:36:51;8.70;99.90
9987;DHT22;5033;46.310;11.214;2023-02-21T07:39:18;9.40;99.90
9987;DHT22;5033;46.310;11.214;2023-02-21T07:41:47;10.10;99.90
9987;DHT22;5033;46.310;11.214;2023-02-21T07:44:14;10.60;99.90
9987;DHT22;5033;46.310;11.214;2023-02-21T07:46:41;10.90;99.90
9987;DHT22;5033;46.310;11.214;2023-02-21T07:49:10;11.10;99.90
9987;DHT22;5033;46.310;11.214;2023-02-21T07:51:38;11.40;99.90
9987;DHT22;5033;46.310;11.214;2023-02-21T07:54:05;11.80;99.90
9987;DHT22;5033;46.310;11.214;2023-02-21T07:56:32;12.00;99.90
9987;DHT22;5033;46.310;11.214;2023-02-21T07:59:01;12.20;99.90
9987;DHT22;5033;46.310;11.214;2023-02-21T08:01:28;12.50;99.90
9987;DHT22;5033;46.310;11.214;2023-02-21T08:03:55;12.60;99.90
9987;DHT22;5033;46.310;11.214;2023-02-21T08:06:22;12.70;99.90
9987;DHT22;5033;46.310;11.214;2023-02-21T08:08:49;13.00;99.90
9987;DHT22;5033;46.310;11.214;2023-02-21T08:11:16;13.30;99.90
9987;DHT22;5033;46.310;11.214;2023-02-21T08:13:43;13.70;99.90
9987;DHT22;5033;46.310;11.214;2023-02-21T08:16:11;13.90;99.90
9987;DHT22;5033;46.310;11.214;2023-02-21T08:18:38;14.20;99.90
9987;DHT22;5033;46.310;11.214;2023-02-21T08:21:07;14.50;99.90
9987;DHT22;5033;46.310;11.214;2023-02-21T08:23:35;14.70;99.90
9987;DHT22;5033;46.310;11.214;2023-02-21T08:26:03;15.00;99.90
9987;DHT22;5033;46.310;11.214;2023-02-21T08:28:30;15.10;99.90
9987;DHT22;5033;46.310;11.214;2023-02-21T08:30:57;15.20;99.90
9987;DHT22;5033;46.310;11.214;2023-02-21T08:33:26;15.30;99.90
9987;DHT22;5033;46.310;11.214;2023-02-21T08:35:53;15.40;99.90
9987;DHT22;5033;46.310;11.214;2023-02-21T08:38:20;15.30;99.90
9987;DHT22;5033;46.310;11.214;2023-02-21T08:40:47;15.40;99.90
9987;DHT22;5033;46.310;11.214;2023-02-21T08:43:16;15.40;99.90
9987;DHT22;5033;46.310;11.214;2023-02-21T08:45:43;15.50;99.90
9987;DHT22;5033;46.310;11.214;2023-02-21T08:48:11;15.60;99.90
9987;DHT22;5033;46.310;11.214;2023-02-21T08:50:40;15.70;99.90
9987;DHT22;5033;46.310;11.214;2023-02-21T08:53:06;15.80;99.90
9987;DHT22;5033;46.310;11.214;2023-02-21T08:55:33;15.70;99.90
9987;DHT22;5033;46.310;11.214;2023-02-21T08:58:01;15.80;99.90
9987;DHT22;5033;46.310;11.214;2023-02-21T09:00:28;16.10;99.90
9987;DHT22;5033;46.310;11.214;2023-02-21T09:02:57;16.20;99.90
9987;DHT22;5033;46.310;11.214;2023-02-21T09:05:26;16.30;99.90
9987;DHT22;5033;46.310;11.214;2023-02-21T09:07:58;16.20;99.90
9987;DHT22;5033;46.310;11.214;2023-02-21T09:10:27;16.00;99.90
9987;DHT22;5033;46.310;11.214;2023-02-21T09:12:55;16.00;99.90
9987;DHT22;5033;46.310;11.214;2023-02-21T09:15:24;15.70;99.90
9987;DHT22;5033;46.310;11.214;2023-02-21T09:17:51;15.40;99.90
9987;DHT22;5033;46.310;11.214;2023-02-21T09:20:21;15.30;99.90
9987;DHT22;5033;46.310;11.214;2023-02-21T09:22:49;15.40;99.90
9987;DHT22;5033;46.310;11.214;2023-02-21T09:25:20;15.40;99.90
9987;DHT22;5033;46.310;11.214;2023-02-21T09:27:49;15.40;99.90
9987;DHT22;5033;46.310;11.214;2023-02-21T09:30:19;15.40;99.90
9987;DHT22;5033;46.310;11.214;2023-02-21T09:32:48;15.30;99.90
9987;DHT22;5033;46.310;11.214;2023-02-21T09:35:16;15.40;99.90
9987;DHT22;5033;46.310;11.214;2023-02-21T09:37:44;15.50;99.90
9987;DHT22;5033;46.310;11.214;2023-02-21T09:40:33;15.80;99.90
9987;DHT22;5033;46.310;11.214;2023-02-21T09:43:02;15.70;99.90
9987;DHT22;5033;46.310;11.214;2023-02-21T09:45:32;15.30;99.90
9987;DHT22;5033;46.310;11.214;2023-02-21T09:48:03;15.20;99.90
9987;DHT22;5033;46.310;11.214;2023-02-21T09:50:36;15.20;99.90
9987;DHT22;5033;46.310;11.214;2023-02-21T09:53:06;15.10;99.90
9987;DHT22;5033;46.310;11.214;2023-02-21T09:55:37;15.00;99.90
9987;DHT22;5033;46.310;11.214;2023-02-21T09:58:10;15.20;99.90
9987;DHT22;5033;46.310;11.214;2023-02-21T10:00:37;15.40;99.90
9987;DHT22;5033;46.310;11.214;2023-02-21T10:03:18;15.60;99.90
9987;DHT22;5033;46.310;11.214;2023-02-21T10:05:53;15.70;99.90
9987;DHT22;5033;46.310;11.214;2023-02-21T10:08:29;15.90;99.90
9987;DHT22;5033;46.310;11.214;2023-02-21T10:11:12;16.00;99.90
9987;DHT22;5033;46.310;11.214;2023-02-21T10:13:52;16.10;99.90
9987;DHT22;5033;46.310;11.214;2023-02-21T10:16:26;15.90;99.90
9987;DHT22;5033;46.310;11.214;2023-02-21T10:19:01;15.80;99.90
9987;DHT22;5033;46.310;11.214;2023-02-21T10:21:32;15.90;99.90
9987;DHT22;5033;46.310;11.214;2023-02-21T10:24:02;15.90;99.90
9987;DHT22;5033;46.310;11.214;2023-02-21T10:26:38;16.00;99.90
9987;DHT22;5033;46.310;11.214;2023-02-21T10:29:18;16.20;99.90
9987;DHT22;5033;46.310;11.214;2023-02-21T10:31:46;16.30;99.90
9987;DHT22;5033;46.310;11.214;2023-02-21T10:34:19;16.00;99.90
9987;DHT22;5033;46.310;11.214;2023-02-21T10:36:48;15.90;99.90
9987;DHT22;5033;46.310;11.214;2023-02-21T10:39:18;15.70;99.90
9987;DHT22;5033;46.310;11.214;2023-02-21T10:41:49;15.70;99.90
9987;DHT22;5033;46.310;11.214;2023-02-21T10:44:20;15.80;99.90
9987;DHT22;5033;46.310;11.214;2023-02-21T10:46:54;15.80;99.90
9987;DHT22;5033;46.310;11.214;2023-02-21T10:49:27;15.90;99.90
9987;DHT22;5033;46.310;11.214;2023-02-21T10:52:08;15.60;99.90
9987;DHT22;5033;46.310;11.214;2023-02-21T10:54:36;15.30;99.90
9987;DHT22;5033;46.310;11.214;2023-02-21T10:57:06;15.00;99.90
9987;DHT22;5033;46.310;11.214;2023-02-21T10:59:36;14.50;99.90
9987;DHT22;5033;46.310;11.214;2023-02-21T11:02:25;14.50;99.90
9987;DHT22;5033;46.310;11.214;2023-02-21T11:04:54;15.10;99.90
9987;DHT22;5033;46.310;11.214;2023-02-21T11:07:22;15.50;99.90
9987;DHT22;5033;46.310;11.214;2023-02-21T11:09:49;15.70;99.90
9987;DHT22;5033;46.310;11.214;2023-02-21T11:12:21;15.70;99.90
9987;DHT22;5033;46.310;11.214;2023-02-21T11:15:14;15.80;99.90
9987;DHT22;5033;46.310;11.214;2023-02-21T11:17:43;15.60;99.90
9987;DHT22;5033;46.310;11.214;2023-02-21T11:20:17;15.40;99.90
9987;DHT22;5033;46.310;11.214;2023-02-21T11:22:46;15.30;99.90
9987;DHT22;5033;46.310;11.214;2023-02-21T11:25:20;15.40;99.90
9987;DHT22;5033;46.310;11.214;2023-02-21T11:28:01;15.30;99.90
9987;DHT22;5033;46.310;11.214;2023-02-21T11:30:30;15.10;99.90
9987;DHT22;5033;46.310;11.214;2023-02-21T11:32:58;15.00;99.90
9987;DHT22;5033;46.310;11.214;2023-02-21T11:35:28;14.90;99.90
9987;DHT22;5033;46.310;11.214;2023-02-21T11:37:58;14.70;99.90
9987;DHT22;5033;46.310;11.214;2023-02-21T11:40:32;14.60;99.90
9987;DHT22;5033;46.310;11.214;2023-02-21T11:43:28;14.50;99.90
9987;DHT22;5033;46.310;11.214;2023-02-21T11:46:07;14.30;99.90
9987;DHT22;5033;46.310;11.214;2023-02-21T11:48:41;14.50;99.90
9987;DHT22;5033;46.310;11.214;2023-02-21T11:51:25;14.40;99.90
9987;DHT22;5033;46.310;11.214;2023-02-21T11:53:52;14.60;99.90
9987;DHT22;5033;46.310;11.214;2023-02-21T11:56:31;14.70;99.90
9987;DHT22;5033;46.310;11.214;2023-02-21T11:59:12;14.50;99.90
9987;DHT22;5033;46.310;11.214;2023-02-21T12:01:49;14.60;99.90
9987;DHT22;5033;46.310;11.214;2023-02-21T12:04:35;14.60;99.90
9987;DHT22;5033;46.310;11.214;2023-02-21T12:07:11;14.80;99.90
9987;DHT22;5033;46.310;11.214;2023-02-21T12:09:46;15.10;99.90
9987;DHT22;5033;46.310;11.214;2023-02-21T12:12:29;15.20;99.90
9987;DHT22;5033;46.310;11.214;2023-02-21T12:15:07;15.50;99.90
9987;DHT22;5033;46.310;11.214;2023-02-21T12:17:56;15.70;99.90
9987;DHT22;5033;46.310;11.214;2023-02-21T12:20:45;16.10;99.90
9987;DHT22;5033;46.310;11.214;2023-02-21T12:23:20;16.40;99.90
9987;DHT22;5033;46.310;11.214;2023-02-21T12:25:58;16.50;99.90
9987;DHT22;5033;46.310;11.214;2023-02-21T12:28:36;16.50;99.90
9987;DHT22;5033;46.310;11.214;2023-02-21T12:31:17;16.30;99.90
9987;DHT22;5033;46.310;11.214;2023-02-21T12:33:53;16.20;99.90
9987;DHT22;5033;46.310;11.214;2023-02-21T12:36:38;15.80;99.90
9987;DHT22;5033;46.310;11.214;2023-02-21T12:39:25;15.40;99.90
9987;DHT22;5033;46.310;11.214;2023-02-21T12:42:07;15.40;99.90
9987;DHT22;5033;46.310;11.214;2023-02-21T12:44:46;15.30;99.90
9987;DHT22;5033;46.310;11.214;2023-02-21T12:47:19;15.40;99.90
9987;DHT22;5033;46.310;11.214;2023-02-21T12:49:52;15.40;99.90
9987;DHT22;5033;46.310;11.214;2023-02-21T12:52:24;15.50;99.90
9987;DHT22;5033;46.310;11.214;2023-02-21T12:54:56;15.30;99.90
9987;DHT22;5033;46.310;11.214;2023-02-21T12:57:29;15.40;99.90
9987;DHT22;5033;46.310;11.214;2023-02-21T13:00:02;15.40;99.90
9987;DHT22;5033;46.310;11.214;2023-02-21T13:02:39;15.60;99.90
9987;DHT22;5033;46.310;11.214;2023-02-21T13:05:11;15.80;99.90
9987;DHT22;5033;46.310;11.214;2023-02-21T13:07:42;16.10;99.90
9987;DHT22;5033;46.310;11.214;2023-02-21T13:10:16;16.40;99.90
9987;DHT22;5033;46.310;11.214;2023-02-21T13:12:49;16.20;99.90
9987;DHT22;5033;46.310;11.214;2023-02-21T13:15:21;16.20;99.90
9987;DHT22;5033;46.310;11.214;2023-02-21T13:17:57;16.20;99.90
9987;DHT22;5033;46.310;11.214;2023-02-21T13:20:27;16.40;99.90
9987;DHT22;5033;46.310;11.214;2023-02-21T13:26:30;16.70;99.90
9987;DHT22;5033;46.310;11.214;2023-02-21T13:28:59;17.00;99.90
9987;DHT22;5033;46.310;11.214;2023-02-21T13:31:27;17.20;99.90
9987;DHT22;5033;46.310;11.214;2023-02-21T13:34:06;17.20;99.90
9987;DHT22;5033;46.310;11.214;2023-02-21T13:36:40;17.20;99.90
9987;DHT22;5033;46.310;11.214;2023-02-21T13:39:12;17.30;99.90
9987;DHT22;5033;46.310;11.214;2023-02-21T13:41:41;17.40;99.90
9987;DHT22;5033;46.310;11.214;2023-02-21T13:44:11;17.50;99.90
9987;DHT22;5033;46.310;11.214;2023-02-21T13:47:03;17.50;99.90
9987;DHT22;5033;46.310;11.214;2023-02-21T13:49:54;17.40;99.90
9987;DHT22;5033;46.310;11.214;2023-02-21T13:52:52;17.30;99.90
9987;DHT22;5033;46.310;11.214;2023-02-21T13:55:26;17.30;99.90
9987;DHT22;5033;46.310;11.214;2023-02-21T14:01:40;17.10;99.90
9987;DHT22;5033;46.310;11.214;2023-02-21T14:10:23;17.00;99.90
9987;DHT22;5033;46.310;11.214;2023-02-21T14:12:54;17.10;99.90
9987;DHT22;5033;46.310;11.214;2023-02-21T14:15:21;17.20;99.90
9987;DHT22;5033;46.310;11.214;2023-02-21T14:17:50;17.40;99.90
9987;DHT22;5033;46.310;11.214;2023-02-21T14:20:20;17.30;99.90
9987;DHT22;5033;46.310;11.214;2023-02-21T14:22:49;17.30;99.90
9987;DHT22;5033;46.310;11.214;2023-02-21T14:25:22;17.20;99.90
9987;DHT22;5033;46.310;11.214;2023-02-21T14:27:50;17.30;99.90
9987;DHT22;5033;46.310;11.214;2023-02-21T14:30:32;17.20;99.90
9987;DHT22;5033;46.310;11.214;2023-02-21T14:33:20;17.30;99.90
9987;DHT22;5033;46.310;11.214;2023-02-21T14:35:56;17.30;99.90
9987;DHT22;5033;46.310;11.214;2023-02-21T14:38:26;17.20;99.90
9987;DHT22;5033;46.310;11.214;2023-02-21T14:41:04;17.30;99.90
9987;DHT22;5033;46.310;11.214;2023-02-21T14:43:54;17.20;99.90
9987;DHT22;5033;46.310;11.214;2023-02-21T14:47:05;17.10;99.90
9987;DHT22;5033;46.310;11.214;2023-02-21T14:56:11;16.60;99.90
9987;DHT22;5033;46.310;11.214;2023-02-21T14:59:07;16.60;99.90
9987;DHT22;5033;46.310;11.214;2023-02-21T15:01:57;16.60;99.90
9987;DHT22;5033;46.310;11.214;2023-02-21T15:04:33;16.70;99.90
9987;DHT22;5033;46.310;11.214;2023-02-21T15:07:11;16.60;99.90
9987;DHT22;5033;46.310;11.214;2023-02-21T15:09:43;16.50;99.90
9987;DHT22;5033;46.310;11.214;2023-02-21T15:12:15;16.40;99.90
9987;DHT22;5033;46.310;11.214;2023-02-21T15:14:47;16.20;99.90
9987;DHT22;5033;46.310;11.214;2023-02-21T15:17:23;15.90;99.90
9987;DHT22;5033;46.310;11.214;2023-02-21T15:20:01;15.70;99.90
9987;DHT22;5033;46.310;11.214;2023-02-21T15:22:30;15.40;99.90
9987;DHT22;5033;46.310;11.214;2023-02-21T15:24:59;15.40;99.90
9987;DHT22;5033;46.310;11.214;2023-02-21T15:27:29;15.30;99.90
9987;DHT22;5033;46.310;11.214;2023-02-21T15:30:07;15.10;99.90
9987;DHT22;5033;46.310;11.214;2023-02-21T15:32:34;14.90;99.90
9987;DHT22;5033;46.310;11.214;2023-02-21T15:35:03;14.80;99.90
9987;DHT22;5033;46.310;11.214;2023-02-21T15:37:32;14.70;99.90
9987;DHT22;5033;46.310;11.214;2023-02-21T15:40:03;14.60;99.90
9987;DHT22;5033;46.310;11.214;2023-02-21T15:42:38;14.50;99.90
9987;DHT22;5033;46.310;11.214;2023-02-21T15:45:08;14.40;99.90
9987;DHT22;5033;46.310;11.214;2023-02-21T15:47:37;14.20;99.90
9987;DHT22;5033;46.310;11.214;2023-02-21T15:50:06;14.00;99.90
9987;DHT22;5033;46.310;11.214;2023-02-21T15:52:36;14.00;99.90
9987;DHT22;5033;46.310;11.214;2023-02-21T15:55:14;13.90;99.90
9987;DHT22;5033;46.310;11.214;2023-02-21T15:57:44;13.80;99.90
9987;DHT22;5033;46.310;11.214;2023-02-21T16:00:22;13.60;99.90
9987;DHT22;5033;46.310;11.214;2023-02-21T16:02:50;13.50;99.90
9987;DHT22;5033;46.310;11.214;2023-02-21T16:05:23;13.40;99.90
9987;DHT22;5033;46.310;11.214;2023-02-21T16:07:50;13.40;99.90
9987;DHT22;5033;46.310;11.214;2023-02-21T16:10:21;13.20;99.90
9987;DHT22;5033;46.310;11.214;2023-02-21T16:12:55;13.10;99.90
9987;DHT22;5033;46.310;11.214;2023-02-21T16:15:26;12.90;99.90
9987;DHT22;5033;46.310;11.214;2023-02-21T16:17:56;12.80;99.90
9987;DHT22;5033;46.310;11.214;2023-02-21T16:20:28;12.60;99.90
9987;DHT22;5033;46.310;11.214;2023-02-21T16:23:23;12.50;99.90
9987;DHT22;5033;46.310;11.214;2023-02-21T16:26:20;12.40;99.90
9987;DHT22;5033;46.310;11.214;2023-02-21T16:28:53;12.20;99.90
9987;DHT22;5033;46.310;11.214;2023-02-21T16:31:25;12.10;99.90
9987;DHT22;5033;46.310;11.214;2023-02-21T16:33:53;12.10;99.90
9987;DHT22;5033;46.310;11.214;2023-02-21T16:36:23;12.00;99.90
9987;DHT22;5033;46.310;11.214;2023-02-21T16:38:52;11.90;99.90
9987;DHT22;5033;46.310;11.214;2023-02-21T16:41:19;11.90;99.90
9987;DHT22;5033;46.310;11.214;2023-02-21T16:43:46;11.90;99.90
9987;DHT22;5033;46.310;11.214;2023-02-21T16:46:15;11.90;99.90
9987;DHT22;5033;46.310;11.214;2023-02-21T16:48:48;11.90;99.90
9987;DHT22;5033;46.310;11.214;2023-02-21T16:51:15;11.90;99.90
9987;DHT22;5033;46.310;11.214;2023-02-21T16:53:43;11.80;99.90
9987;DHT22;5033;46.310;11.214;2023-02-21T16:56:11;11.70;99.90
9987;DHT22;5033;46.310;11.214;2023-02-21T16:58:42;11.60;99.90
9987;DHT22;5033;46.310;11.214;2023-02-21T17:01:13;11.50;99.90
9987;DHT22;5033;46.310;11.214;2023-02-21T17:03:42;11.50;99.90